Time;durP1;ratioP1;P1;durP2;ratioP2;P2;SDS_P1;SDS_P2;PMS_P1;PMS_P2;Temp;Humidity;BMP_temperature;BMP_pressure;BME280_temperature;BME280_humidity;BME280_pressure;Samples;Min_cycle;Max_cycle;Signal;HPM_P1;HPM_P2
2022/08/29 00:00:58;;;;;;;5.90;2.67;;;16.40;99.90;;;;;;472704;249;29016;-69
2022/08/29 00:02:59;;;;;;;5.00;2.70;;;16.40;99.90;;;;;;472681;249;29050;-72
2022/08/29 00:05:01;;;;;;;5.90;2.80;;;16.40;99.90;;;;;;472644;249;28878;-68
2022/08/29 00:07:02;;;;;;;2.53;2.33;;;16.30;99.90;;;;;;472644;249;29446;-68
2022/08/29 00:09:03;;;;;;;5.20;2.57;;;16.30;99.90;;;;;;472701;249;29472;-69
2022/08/29 00:11:05;;;;;;;4.93;2.30;;;16.30;99.90;;;;;;472628;249;29739;-69
2022/08/29 00:13:06;;;;;;;3.37;2.53;;;16.30;99.90;;;;;;472702;250;28926;-71
2022/08/29 00:15:07;;;;;;;4.20;2.40;;;16.30;99.90;;;;;;472676;249;28907;-67
2022/08/29 00:17:08;;;;;;;2.90;2.20;;;16.30;99.90;;;;;;472614;249;29011;-69
2022/08/29 00:19:09;;;;;;;2.30;1.97;;;16.20;99.90;;;;;;472716;249;28898;-68
2022/08/29 00:21:11;;;;;;;3.23;2.17;;;16.10;99.90;;;;;;472700;249;28885;-69
2022/08/29 00:23:12;;;;;;;5.30;2.60;;;16.10;99.90;;;;;;472690;249;28922;-71
2022/08/29 00:25:13;;;;;;;4.67;2.40;;;16.10;99.90;;;;;;472700;249;28892;-68
2022/08/29 00:27:14;;;;;;;3.07;2.23;;;16.00;99.90;;;;;;472625;249;28954;-70
2022/08/29 00:29:16;;;;;;;3.20;2.30;;;15.90;99.90;;;;;;472689;249;28870;-68
2022/08/29 00:31:17;;;;;;;3.80;2.30;;;15.90;99.90;;;;;;472664;251;29408;-68
2022/08/29 00:33:18;;;;;;;2.70;2.10;;;16.00;99.90;;;;;;472679;250;29401;-70
2022/08/29 00:35:20;;;;;;;5.53;2.20;;;15.90;99.90;;;;;;472700;249;29364;-68
2022/08/29 00:37:21;;;;;;;2.47;2.27;;;15.90;99.90;;;;;;472626;249;29383;-69
2022/08/29 00:39:22;;;;;;;3.57;2.40;;;15.90;99.90;;;;;;472678;249;28870;-68
2022/08/29 00:41:23;;;;;;;2.67;1.87;;;15.90;99.90;;;;;;472685;249;28875;-70
2022/08/29 00:43:24;;;;;;;3.60;2.00;;;15.90;99.90;;;;;;472718;249;28933;-73
2022/08/29 00:45:26;;;;;;;3.30;2.50;;;15.80;99.90;;;;;;472716;249;28911;-68
2022/08/29 00:47:27;;;;;;;6.37;2.57;;;15.70;99.90;;;;;;472627;250;28891;-69
2022/08/29 00:49:28;;;;;;;6.47;2.37;;;15.80;99.90;;;;;;472701;249;28871;-68
2022/08/29 00:51:29;;;;;;;3.00;2.53;;;15.90;99.90;;;;;;472704;249;28687;-68
2022/08/29 00:53:31;;;;;;;3.40;2.43;;;15.90;99.90;;;;;;472663;249;29021;-72
2022/08/29 00:55:32;;;;;;;4.07;2.40;;;15.80;99.90;;;;;;472651;249;28869;-69
2022/08/29 00:57:33;;;;;;;3.03;2.30;;;15.80;99.90;;;;;;472666;249;29394;-68
2022/08/29 00:59:34;;;;;;;3.07;2.20;;;15.90;99.90;;;;;;472680;250;29400;-68
2022/08/29 01:01:36;;;;;;;4.40;2.53;;;15.90;99.90;;;;;;472685;249;29406;-68
2022/08/29 01:03:37;;;;;;;3.93;2.20;;;15.80;99.90;;;;;;472693;249;29010;-68
2022/08/29 01:05:38;;;;;;;3.60;2.30;;;15.80;99.90;;;;;;472697;249;28882;-69
2022/08/29 01:07:39;;;;;;;2.37;2.20;;;15.70;99.90;;;;;;472597;250;28904;-69
2022/08/29 01:09:41;;;;;;;4.23;2.60;;;15.60;99.90;;;;;;472680;249;28949;-69
2022/08/29 01:14:02;;;;;;;2.00;1.90;;;15.60;99.90;;;;;;472702;251;29485;-70
2022/08/29 01:16:03;;;;;;;2.83;2.00;;;15.50;99.90;;;;;;472661;250;28883;-74
2022/08/29 01:18:04;;;;;;;2.73;2.13;;;15.40;99.90;;;;;;472654;249;28910;-69
2022/08/29 01:20:05;;;;;;;2.10;2.00;;;15.10;99.90;;;;;;472723;249;28994;-68
2022/08/29 01:22:07;;;;;;;2.20;1.97;;;14.90;99.90;;;;;;472715;249;28875;-68
2022/08/29 01:24:08;;;;;;;2.10;1.90;;;14.90;99.90;;;;;;472681;249;28897;-71
2022/08/29 01:26:09;;;;;;;1.83;1.73;;;14.90;99.90;;;;;;472616;249;28476;-69
2022/08/29 01:28:10;;;;;;;5.00;2.00;;;15.00;99.90;;;;;;472711;249;28905;-69
2022/08/29 01:30:13;;;;;;;1.90;1.80;;;15.10;99.90;;;;;;472677;249;28894;-68
2022/08/29 01:32:13;;;;;;;2.10;1.90;;;15.10;99.90;;;;;;472591;251;28930;-68
2022/08/29 01:34:14;;;;;;;3.53;1.83;;;15.10;99.90;;;;;;472712;249;29940;-72
2022/08/29 01:36:15;;;;;;;2.23;2.00;;;15.20;99.90;;;;;;472630;249;29390;-68
2022/08/29 01:38:26;;;;;;;2.17;1.83;;;15.10;99.90;;;;;;472701;249;29468;-69
2022/08/29 01:40:18;;;;;;;2.00;1.80;;;15.10;99.90;;;;;;472130;251;29421;-69
2022/08/29 01:42:19;;;;;;;2.80;2.10;;;15.00;99.90;;;;;;472659;251;28899;-69
2022/08/29 01:44:20;;;;;;;6.10;2.13;;;14.90;99.90;;;;;;472694;249;28695;-68
2022/08/29 01:46:22;;;;;;;1.93;1.83;;;15.00;99.90;;;;;;472630;249;28976;-69
2022/08/29 01:48:23;;;;;;;1.93;1.70;;;14.90;99.90;;;;;;472690;249;28926;-68
2022/08/29 01:50:24;;;;;;;2.27;1.70;;;15.00;99.90;;;;;;472701;250;28973;-68
2022/08/29 01:52:25;;;;;;;2.03;1.93;;;14.90;99.90;;;;;;472694;249;28617;-69
2022/08/29 01:54:27;;;;;;;2.20;2.00;;;14.80;99.90;;;;;;472707;249;28968;-71
2022/08/29 01:56:28;;;;;;;2.13;2.00;;;14.80;99.90;;;;;;472592;250;28527;-68
2022/08/29 01:58:29;;;;;;;2.03;1.77;;;14.80;99.90;;;;;;472539;249;29393;-69
2022/08/29 02:00:30;;;;;;;2.27;2.07;;;14.80;99.90;;;;;;472547;249;29412;-70
2022/08/29 02:02:32;;;;;;;2.60;2.00;;;14.80;99.90;;;;;;472659;250;29472;-71
2022/08/29 02:04:33;;;;;;;2.00;1.80;;;14.70;99.90;;;;;;472697;249;29479;-67
2022/08/29 02:06:34;;;;;;;2.77;2.30;;;14.70;99.90;;;;;;472640;249;28874;-69
2022/08/29 02:08:35;;;;;;;2.50;1.67;;;14.70;99.90;;;;;;472697;250;28995;-68
2022/08/29 02:10:37;;;;;;;2.00;1.90;;;14.60;99.90;;;;;;472705;249;28528;-68
2022/08/29 02:12:38;;;;;;;2.10;1.93;;;14.60;99.90;;;;;;472703;249;28997;-68
2022/08/29 02:14:39;;;;;;;2.07;1.97;;;14.50;99.90;;;;;;472689;249;28453;-68
2022/08/29 02:16:40;;;;;;;2.47;1.70;;;14.50;99.90;;;;;;472591;249;28569;-67
2022/08/29 02:18:42;;;;;;;2.10;1.90;;;14.40;99.90;;;;;;472729;249;28669;-68
2022/08/29 02:20:43;;;;;;;2.57;1.70;;;14.40;99.90;;;;;;472719;249;28552;-67
2022/08/29 02:22:44;;;;;;;2.07;1.87;;;14.40;99.90;;;;;;472712;249;28519;-68
2022/08/29 02:24:45;;;;;;;2.20;1.77;;;14.40;99.90;;;;;;472691;249;28926;-68
2022/08/29 02:26:47;;;;;;;1.77;1.67;;;14.40;99.90;;;;;;472634;250;28797;-68
2022/08/29 02:28:50;;;;;;;4.40;1.90;;;14.30;99.90;;;;;;472717;249;28948;-70
2022/08/29 02:30:49;;;;;;;2.30;1.70;;;14.20;99.90;;;;;;472632;250;28355;-68
2022/08/29 02:32:50;;;;;;;2.37;2.17;;;14.10;99.90;;;;;;472725;249;28505;-68
2022/08/29 02:34:52;;;;;;;1.83;1.73;;;14.10;99.90;;;;;;472629;249;28728;-68
2022/08/29 02:36:53;;;;;;;1.80;1.70;;;14.10;99.90;;;;;;472411;249;28353;-69
2022/08/29 02:38:54;;;;;;;2.47;1.97;;;14.00;99.90;;;;;;472635;249;28373;-70
2022/08/29 02:40:55;;;;;;;2.07;1.73;;;14.00;99.90;;;;;;472664;249;28985;-68
2022/08/29 02:42:57;;;;;;;1.70;1.60;;;14.10;99.90;;;;;;472670;249;29078;-69
2022/08/29 02:44:58;;;;;;;2.07;1.80;;;14.00;99.90;;;;;;472683;249;29573;-68
2022/08/29 02:46:59;;;;;;;2.20;1.63;;;14.00;99.90;;;;;;472543;249;28335;-68
2022/08/29 02:49:00;;;;;;;1.87;1.73;;;14.00;99.90;;;;;;472682;249;28485;-70
2022/08/29 02:51:02;;;;;;;2.53;2.20;;;14.10;99.90;;;;;;472670;249;28576;-68
2022/08/29 02:53:03;;;;;;;2.70;2.50;;;14.10;99.90;;;;;;472671;249;28557;-70
2022/08/29 02:55:04;;;;;;;1.80;1.70;;;14.10;99.90;;;;;;472678;249;28449;-68
2022/08/29 02:57:05;;;;;;;2.10;2.00;;;14.10;99.90;;;;;;472612;250;28281;-68
2022/08/29 02:59:07;;;;;;;2.27;1.70;;;14.10;99.90;;;;;;472690;249;28346;-71
2022/08/29 03:01:08;;;;;;;2.20;1.90;;;14.00;99.90;;;;;;472701;249;28453;-68
2022/08/29 03:03:09;;;;;;;2.10;1.77;;;14.00;99.90;;;;;;472677;249;28525;-70
2022/08/29 03:05:10;;;;;;;1.70;1.60;;;14.00;99.90;;;;;;472714;250;28684;-68
2022/08/29 03:07:12;;;;;;;2.10;1.90;;;13.90;99.90;;;;;;472583;249;28941;-69
2022/08/29 03:09:13;;;;;;;2.30;1.70;;;13.90;99.90;;;;;;472610;249;28855;-70
2022/08/29 03:11:14;;;;;;;2.23;2.03;;;13.90;99.90;;;;;;472207;249;28340;-68
2022/08/29 03:13:15;;;;;;;1.80;1.70;;;13.90;99.90;;;;;;472680;249;28370;-69
2022/08/29 03:15:17;;;;;;;1.70;1.60;;;14.00;99.90;;;;;;472688;249;28440;-68
2022/08/29 03:17:18;;;;;;;3.03;2.00;;;14.00;99.90;;;;;;472687;250;28289;-68
2022/08/29 03:19:19;;;;;;;2.10;1.63;;;14.00;99.90;;;;;;472775;249;28536;-70
2022/08/29 03:21:20;;;;;;;2.10;1.80;;;14.10;99.90;;;;;;472731;251;28134;-67
2022/08/29 03:23:22;;;;;;;1.93;1.83;;;14.00;99.90;;;;;;472766;250;28284;-68
2022/08/29 03:25:23;;;;;;;1.97;1.87;;;14.00;99.90;;;;;;472774;249;28238;-68
2022/08/29 03:27:24;;;;;;;2.70;1.93;;;13.90;99.90;;;;;;472613;250;28308;-68
2022/08/29 03:29:25;;;;;;;3.60;2.00;;;13.80;99.90;;;;;;472743;249;28943;-70
2022/08/29 03:31:27;;;;;;;2.40;2.00;;;13.90;99.90;;;;;;472753;250;28704;-68
2022/08/29 03:33:28;;;;;;;3.20;1.97;;;13.90;99.90;;;;;;472767;249;28689;-69
2022/08/29 03:35:29;;;;;;;2.37;2.17;;;13.80;99.90;;;;;;472780;249;28684;-68
2022/08/29 03:37:31;;;;;;;1.93;1.80;;;13.60;99.90;;;;;;472742;249;28288;-68
2022/08/29 03:39:32;;;;;;;1.93;1.77;;;13.40;99.90;;;;;;472752;249;28162;-68
2022/08/29 03:41:33;;;;;;;2.10;2.00;;;13.40;99.90;;;;;;472759;249;28195;-68
2022/08/29 03:43:34;;;;;;;1.90;1.63;;;13.40;99.90;;;;;;472737;249;28272;-69
2022/08/29 03:45:35;;;;;;;2.00;1.80;;;13.40;99.90;;;;;;472738;250;28305;-68
2022/08/29 03:47:38;;;;;;;2.00;1.80;;;;;;;;;;472585;249;28464;-68
2022/08/29 03:49:39;;;;;;;2.00;1.90;;;13.30;99.90;;;;;;472737;251;26404;-68
2022/08/29 03:51:40;;;;;;;3.13;2.10;;;13.20;99.90;;;;;;472735;249;28260;-71
2022/08/29 03:53:42;;;;;;;2.90;1.80;;;13.10;99.90;;;;;;472733;249;28211;-68
2022/08/29 03:55:43;;;;;;;2.13;2.00;;;13.20;99.90;;;;;;472742;250;28302;-71
2022/08/29 03:57:44;;;;;;;2.17;1.90;;;13.10;99.90;;;;;;472687;250;28152;-67
2022/08/29 03:59:46;;;;;;;2.07;1.80;;;13.10;99.90;;;;;;472709;249;28182;-68
2022/08/29 04:01:47;;;;;;;3.17;2.10;;;13.20;99.90;;;;;;472694;250;28298;-71
2022/08/29 04:03:48;;;;;;;2.20;1.90;;;13.10;99.90;;;;;;472729;249;28779;-68
2022/08/29 04:05:49;;;;;;;2.10;2.00;;;13.00;99.90;;;;;;472696;249;28370;-69
2022/08/29 04:07:50;;;;;;;2.30;1.90;;;13.10;99.90;;;;;;472652;249;29242;-68
2022/08/29 04:09:52;;;;;;;1.93;1.83;;;13.00;99.90;;;;;;472627;249;28586;-69
2022/08/29 04:11:53;;;;;;;1.87;1.70;;;13.10;99.90;;;;;;472669;249;28889;-71
2022/08/29 04:13:54;;;;;;;3.20;1.87;;;13.20;99.90;;;;;;472491;250;28584;-69
2022/08/29 04:15:55;;;;;;;2.30;2.10;;;13.30;99.90;;;;;;472561;249;28739;-69
2022/08/29 04:17:57;;;;;;;2.10;2.00;;;13.30;99.90;;;;;;472662;249;28366;-68
2022/08/29 04:19:58;;;;;;;2.10;1.90;;;13.30;99.90;;;;;;472751;249;28157;-68
2022/08/29 04:21:59;;;;;;;2.10;2.00;;;13.20;99.90;;;;;;472566;250;28379;-68
2022/08/29 04:24:00;;;;;;;2.07;1.87;;;13.10;99.90;;;;;;472753;251;28782;-68
2022/08/29 04:26:02;;;;;;;1.80;1.70;;;13.20;99.90;;;;;;472736;249;28573;-69
2022/08/29 04:28:03;;;;;;;2.27;2.07;;;13.30;99.90;;;;;;472739;249;28782;-68
2022/08/29 04:30:04;;;;;;;2.03;1.90;;;13.30;99.90;;;;;;472723;249;28282;-68
2022/08/29 04:32:07;;;;;;;2.60;2.10;;;;;;;;;;472728;249;28794;-69
2022/08/29 04:34:08;;;;;;;2.87;2.20;;;13.40;99.90;;;;;;472718;251;26611;-70
2022/08/29 04:36:09;;;;;;;2.00;1.90;;;13.40;99.90;;;;;;472669;249;28871;-68
2022/08/29 04:38:10;;;;;;;4.73;2.10;;;13.20;99.90;;;;;;472706;249;28469;-68
2022/08/29 04:40:12;;;;;;;4.90;2.20;;;13.10;99.90;;;;;;472734;249;28309;-68
2022/08/29 04:42:13;;;;;;;2.00;1.90;;;13.30;99.90;;;;;;472708;249;28224;-67
2022/08/29 04:44:14;;;;;;;2.17;2.00;;;13.40;99.90;;;;;;472730;249;28820;-72
2022/08/29 04:46:15;;;;;;;2.57;1.97;;;13.40;99.90;;;;;;472619;249;28896;-68
2022/08/29 04:48:17;;;;;;;2.60;2.00;;;13.50;99.90;;;;;;472671;250;28883;-70
2022/08/29 04:50:18;;;;;;;2.97;2.20;;;13.40;99.90;;;;;;472635;249;28351;-70
2022/08/29 04:52:19;;;;;;;2.43;2.23;;;13.50;99.90;;;;;;472686;249;28354;-68
2022/08/29 04:54:20;;;;;;;2.20;2.00;;;13.40;99.90;;;;;;472703;249;28262;-71
2022/08/29 04:56:22;;;;;;;1.87;1.60;;;13.50;99.90;;;;;;472648;249;28466;-69
2022/08/29 04:58:24;;;;;;;2.47;2.27;;;;;;;;;;472706;249;28393;-68
2022/08/29 05:00:27;;;;;;;2.10;1.87;;;;;;;;;;472673;251;27745;-70
2022/08/29 05:02:28;;;;;;;2.37;1.90;;;13.30;99.90;;;;;;472692;251;26651;-68
2022/08/29 05:04:29;;;;;;;2.87;2.20;;;13.20;99.90;;;;;;472683;249;28269;-70
2022/08/29 05:06:30;;;;;;;2.73;2.00;;;13.30;99.90;;;;;;472623;249;28586;-69
2022/08/29 05:08:31;;;;;;;1.87;1.77;;;13.40;99.90;;;;;;472687;250;28760;-69
2022/08/29 05:10:33;;;;;;;2.77;2.00;;;13.50;99.90;;;;;;472680;249;28964;-71
2022/08/29 05:12:34;;;;;;;2.53;2.33;;;13.60;99.90;;;;;;472677;249;28812;-68
2022/08/29 05:14:36;;;;;;;3.50;2.50;;;13.60;99.90;;;;;;472692;249;28626;-70
2022/08/29 05:16:37;;;;;;;2.50;2.30;;;13.40;99.90;;;;;;472668;249;28243;-69
2022/08/29 05:18:38;;;;;;;2.60;2.10;;;13.50;99.90;;;;;;472496;251;28460;-69
2022/08/29 05:20:39;;;;;;;3.63;2.40;;;13.50;99.90;;;;;;472658;249;28352;-68
2022/08/29 05:22:41;;;;;;;2.20;2.00;;;13.50;99.90;;;;;;472678;250;28391;-68
2022/08/29 05:24:41;;;;;;;2.03;1.93;;;13.50;99.90;;;;;;472687;249;28368;-71
2022/08/29 05:26:43;;;;;;;3.73;2.73;;;13.70;99.90;;;;;;472655;249;28359;-68
2022/08/29 05:28:44;;;;;;;2.33;2.00;;;13.70;99.90;;;;;;472713;249;28275;-68
2022/08/29 05:30:45;;;;;;;2.90;2.00;;;13.90;99.90;;;;;;472702;249;28248;-68
2022/08/29 05:32:47;;;;;;;3.20;2.43;;;14.00;99.90;;;;;;472715;249;28909;-69
2022/08/29 05:34:48;;;;;;;2.70;2.30;;;13.70;99.90;;;;;;472677;249;28876;-72
2022/08/29 05:36:49;;;;;;;2.70;2.50;;;13.70;99.90;;;;;;472620;249;28790;-68
2022/08/29 05:38:50;;;;;;;2.13;2.03;;;13.80;99.90;;;;;;472555;249;28782;-68
2022/08/29 05:40:52;;;;;;;3.07;2.27;;;13.80;99.90;;;;;;472479;249;28377;-69
2022/08/29 05:42:53;;;;;;;2.90;2.40;;;13.90;99.90;;;;;;472521;249;28560;-69
2022/08/29 05:44:54;;;;;;;2.70;2.40;;;14.10;99.90;;;;;;472672;249;28259;-72
2022/08/29 05:46:55;;;;;;;2.70;2.50;;;14.40;99.90;;;;;;472527;251;28484;-68
2022/08/29 05:48:57;;;;;;;5.37;2.83;;;14.50;99.90;;;;;;472608;250;28514;-69
2022/08/29 05:50:58;;;;;;;3.20;2.40;;;14.60;99.90;;;;;;472684;250;28452;-68
2022/08/29 05:52:59;;;;;;;4.00;2.93;;;14.80;99.90;;;;;;472691;249;28698;-69
2022/08/29 05:55:00;;;;;;;4.17;2.90;;;14.90;99.90;;;;;;472699;249;28706;-70
2022/08/29 05:57:02;;;;;;;3.90;3.30;;;15.00;99.90;;;;;;472593;249;28345;-68
2022/08/29 05:59:03;;;;;;;5.67;2.80;;;15.00;99.90;;;;;;472672;249;29503;-69
2022/08/29 06:01:04;;;;;;;6.83;3.50;;;15.20;99.90;;;;;;472705;249;29352;-69
2022/08/29 06:03:05;;;;;;;3.33;3.03;;;15.20;99.90;;;;;;472719;249;29404;-69
2022/08/29 06:05:07;;;;;;;5.70;2.90;;;15.30;99.90;;;;;;472737;249;28911;-69
2022/08/29 06:07:08;;;;;;;4.03;3.10;;;15.30;99.90;;;;;;472667;249;28867;-69
2022/08/29 06:09:09;;;;;;;4.23;2.60;;;15.30;99.90;;;;;;472709;249;29010;-69
2022/08/29 06:11:10;;;;;;;3.60;2.50;;;15.30;99.90;;;;;;472719;249;28872;-69
2022/08/29 06:13:12;;;;;;;7.47;2.90;;;15.30;99.90;;;;;;472715;249;28883;-69
2022/08/29 06:15:14;;;;;;;4.80;3.30;;;15.30;99.90;;;;;;472713;249;29367;-68
2022/08/29 06:17:15;;;;;;;4.43;3.00;;;15.30;99.90;;;;;;472653;249;29382;-69
2022/08/29 06:19:16;;;;;;;4.00;2.83;;;15.30;99.90;;;;;;472697;249;29515;-70
2022/08/29 06:21:17;;;;;;;9.53;3.07;;;15.40;99.90;;;;;;472718;249;29459;-67
2022/08/29 06:23:19;;;;;;;3.60;2.70;;;15.40;99.90;;;;;;472712;249;28888;-70
2022/08/29 06:25:20;;;;;;;7.13;3.20;;;15.50;99.90;;;;;;472723;249;28885;-69
2022/08/29 06:27:21;;;;;;;6.30;2.97;;;15.40;99.90;;;;;;472667;249;28920;-72
2022/08/29 06:29:23;;;;;;;4.80;2.90;;;15.50;99.90;;;;;;472722;249;28974;-70
2022/08/29 06:31:25;;;;;;;5.23;3.07;;;15.50;99.90;;;;;;472734;249;28818;-70
2022/08/29 06:33:25;;;;;;;4.63;2.70;;;15.60;99.90;;;;;;472633;251;28871;-69
2022/08/29 06:35:27;;;;;;;4.53;2.87;;;15.60;99.90;;;;;;472731;249;29022;-69
2022/08/29 06:37:29;;;;;;;3.83;2.53;;;15.60;99.90;;;;;;472646;249;28891;-70
2022/08/29 06:39:30;;;;;;;5.00;2.77;;;15.70;99.90;;;;;;472731;249;28914;-71
2022/08/29 06:41:31;;;;;;;7.73;3.50;;;15.70;99.90;;;;;;472745;249;29488;-69
2022/08/29 06:43:33;;;;;;;4.90;2.97;;;15.70;99.90;;;;;;472729;249;29383;-69
2022/08/29 06:45:35;;;;;;;6.53;3.20;;;15.80;99.90;;;;;;472751;249;28883;-69
2022/08/29 06:47:36;;;;;;;5.90;2.67;;;15.80;99.90;;;;;;472663;249;28916;-69
2022/08/29 06:49:37;;;;;;;5.70;3.30;;;15.80;99.90;;;;;;472758;249;29310;-69
2022/08/29 06:51:38;;;;;;;7.70;2.90;;;15.80;99.90;;;;;;472721;249;29399;-69
2022/08/29 06:53:40;;;;;;;6.47;3.43;;;15.90;99.90;;;;;;472693;249;29345;-68
2022/08/29 06:55:41;;;;;;;6.20;3.00;;;16.00;99.90;;;;;;472683;249;28902;-69
2022/08/29 06:57:44;;;;;;;4.10;3.33;;;16.00;99.90;;;;;;472590;250;28916;-73
2022/08/29 06:59:43;;;;;;;4.83;2.93;;;16.20;99.90;;;;;;472611;251;28884;-69
2022/08/29 07:01:45;;;;;;;7.73;3.83;;;16.20;99.90;;;;;;472669;249;28975;-70
2022/08/29 07:03:46;;;;;;;6.53;3.27;;;16.30;99.90;;;;;;472670;249;28917;-69
2022/08/29 07:05:47;;;;;;;4.87;3.37;;;16.30;99.90;;;;;;472664;249;28907;-69
2022/08/29 07:07:48;;;;;;;4.33;3.20;;;16.40;99.90;;;;;;472617;249;28968;-72
2022/08/29 07:09:50;;;;;;;3.90;3.03;;;16.40;99.90;;;;;;472706;249;28975;-69
2022/08/29 07:11:52;;;;;;;7.17;4.00;;;16.40;99.90;;;;;;472688;249;28934;-69
2022/08/29 07:13:52;;;;;;;3.40;3.13;;;16.40;99.90;;;;;;472631;250;29436;-69
2022/08/29 07:15:53;;;;;;;4.77;3.37;;;16.50;99.90;;;;;;472696;249;29347;-70
2022/08/29 07:17:55;;;;;;;4.83;3.20;;;16.50;99.90;;;;;;472615;249;29478;-70
2022/08/29 07:19:56;;;;;;;5.63;4.40;;;16.50;99.90;;;;;;472679;249;29490;-69
2022/08/29 07:21:57;;;;;;;5.20;3.33;;;16.50;99.90;;;;;;472671;249;28946;-70
2022/08/29 07:23:58;;;;;;;3.30;3.00;;;16.60;99.90;;;;;;472676;249;28881;-69
2022/08/29 07:26:00;;;;;;;6.40;3.40;;;16.70;99.90;;;;;;472666;249;28989;-69
2022/08/29 07:28:01;;;;;;;5.63;3.37;;;16.70;99.90;;;;;;472676;249;29051;-70
2022/08/29 07:30:02;;;;;;;5.90;3.33;;;16.70;99.90;;;;;;472682;249;28920;-69
2022/08/29 07:32:04;;;;;;;3.37;3.00;;;16.70;99.90;;;;;;472648;251;29003;-69
2022/08/29 07:34:05;;;;;;;4.43;2.50;;;16.90;99.90;;;;;;472674;250;28967;-70
2022/08/29 07:36:06;;;;;;;4.07;3.37;;;16.90;99.90;;;;;;472625;249;28950;-75
2022/08/29 07:38:07;;;;;;;8.83;3.53;;;17.00;99.90;;;;;;472653;249;29403;-72
2022/08/29 07:40:08;;;;;;;6.27;3.40;;;17.00;99.90;;;;;;472676;249;29376;-70
2022/08/29 07:42:10;;;;;;;6.23;2.90;;;16.90;99.90;;;;;;472679;249;29454;-70
2022/08/29 07:44:11;;;;;;;3.77;2.90;;;17.00;99.90;;;;;;472674;249;29332;-69
2022/08/29 07:46:12;;;;;;;7.93;3.37;;;17.10;99.90;;;;;;472620;249;28905;-69
2022/08/29 07:48:13;;;;;;;5.23;3.20;;;17.30;99.90;;;;;;472688;249;29022;-73
2022/08/29 07:50:15;;;;;;;4.20;3.07;;;17.30;99.90;;;;;;472680;249;28877;-70
2022/08/29 07:52:16;;;;;;;4.10;3.00;;;17.30;99.90;;;;;;472688;249;28911;-70
2022/08/29 07:54:17;;;;;;;5.20;3.30;;;17.30;99.90;;;;;;472682;249;28873;-69
2022/08/29 07:56:19;;;;;;;5.43;3.13;;;17.50;99.90;;;;;;472596;249;28899;-69
2022/08/29 07:58:20;;;;;;;8.53;3.17;;;17.60;99.90;;;;;;472683;249;28907;-72
2022/08/29 08:00:21;;;;;;;3.80;3.30;;;17.70;99.90;;;;;;472674;249;28875;-69
2022/08/29 08:02:22;;;;;;;3.23;3.03;;;17.80;99.90;;;;;;472686;249;28868;-70
2022/08/29 08:04:23;;;;;;;5.50;2.60;;;17.80;99.90;;;;;;472690;249;30243;-69
2022/08/29 08:06:25;;;;;;;4.40;3.00;;;17.80;99.90;;;;;;472670;250;29256;-69
2022/08/29 08:08:26;;;;;;;8.63;3.23;;;17.70;99.90;;;;;;472714;250;29410;-70
2022/08/29 08:10:27;;;;;;;4.53;3.13;;;17.60;99.90;;;;;;472711;249;28874;-69
2022/08/29 08:12:28;;;;;;;6.23;3.03;;;17.60;99.90;;;;;;472716;250;28932;-70
2022/08/29 08:14:30;;;;;;;5.50;2.87;;;17.60;99.90;;;;;;472723;250;29015;-69
2022/08/29 08:16:31;;;;;;;5.80;3.23;;;17.70;99.90;;;;;;472684;249;28872;-70
2022/08/29 08:18:32;;;;;;;4.00;2.80;;;17.90;99.90;;;;;;472711;249;28914;-70
2022/08/29 08:20:33;;;;;;;6.70;3.20;;;17.90;99.90;;;;;;472743;249;28881;-69
2022/08/29 08:22:35;;;;;;;6.40;3.00;;;17.90;99.90;;;;;;472726;250;28827;-69
2022/08/29 08:24:36;;;;;;;4.30;2.87;;;18.00;99.90;;;;;;472719;249;28972;-72
2022/08/29 08:26:37;;;;;;;4.20;3.17;;;18.00;99.90;;;;;;472664;249;28897;-69
2022/08/29 08:28:39;;;;;;;5.37;2.83;;;18.00;99.90;;;;;;472731;249;29359;-71
2022/08/29 08:30:40;;;;;;;4.60;3.27;;;18.10;99.90;;;;;;472719;249;29320;-69
2022/08/29 08:32:41;;;;;;;4.20;2.80;;;18.10;99.90;;;;;;472713;249;29322;-69
2022/08/29 08:34:42;;;;;;;5.87;3.30;;;18.20;99.90;;;;;;472713;249;29393;-71
2022/08/29 08:36:43;;;;;;;4.40;2.67;;;18.20;99.90;;;;;;472607;249;28978;-69
2022/08/29 08:38:45;;;;;;;5.20;3.27;;;18.40;99.90;;;;;;472688;249;28931;-70
2022/08/29 08:40:46;;;;;;;5.63;3.03;;;18.50;99.90;;;;;;472693;249;29007;-69
2022/08/29 08:42:48;;;;;;;6.53;2.60;;;18.60;99.90;;;;;;472700;249;28787;-69
2022/08/29 08:44:49;;;;;;;4.63;3.00;;;18.60;99.90;;;;;;472625;251;29044;-72
2022/08/29 08:46:50;;;;;;;3.20;2.53;;;18.70;99.90;;;;;;472633;249;28887;-70
2022/08/29 08:48:51;;;;;;;5.10;2.43;;;18.90;99.90;;;;;;472702;249;29001;-70
2022/08/29 08:50:52;;;;;;;6.33;2.33;;;19.00;99.90;;;;;;472699;249;28889;-69
2022/08/29 08:52:54;;;;;;;4.30;2.87;;;19.10;99.90;;;;;;472711;249;29351;-69
2022/08/29 08:54:55;;;;;;;4.80;2.80;;;19.10;99.90;;;;;;472702;249;29379;-73
2022/08/29 08:56:56;;;;;;;5.43;3.10;;;19.30;99.90;;;;;;472616;249;29394;-70
2022/08/29 08:58:57;;;;;;;5.40;3.17;;;19.20;99.90;;;;;;472680;249;29539;-70
2022/08/29 09:00:59;;;;;;;4.67;3.37;;;19.30;99.90;;;;;;472665;249;28999;-69
2022/08/29 09:03:00;;;;;;;4.90;3.20;;;19.40;99.90;;;;;;472694;249;28961;-70
2022/08/29 09:05:02;;;;;;;7.73;3.30;;;19.50;99.90;;;;;;472697;249;28908;-70
2022/08/29 09:07:02;;;;;;;6.73;3.23;;;19.40;99.90;;;;;;472593;250;28873;-69
2022/08/29 09:09:04;;;;;;;4.43;2.90;;;19.70;99.90;;;;;;472648;249;28936;-69
2022/08/29 09:11:05;;;;;;;6.67;2.90;;;19.80;99.90;;;;;;472693;249;29005;-72
2022/08/29 09:13:06;;;;;;;8.67;3.30;;;19.90;99.90;;;;;;472692;249;29049;-69
2022/08/29 09:15:07;;;;;;;4.90;3.30;;;20.00;99.90;;;;;;472659;249;28916;-69
2022/08/29 09:17:09;;;;;;;4.40;2.80;;;20.10;99.90;;;;;;472637;249;28885;-70
2022/08/29 09:19:10;;;;;;;7.97;2.90;;;20.10;99.90;;;;;;472665;249;29481;-70
2022/08/29 09:21:11;;;;;;;7.67;3.00;;;20.20;99.90;;;;;;472676;249;29407;-72
2022/08/29 09:23:12;;;;;;;4.73;3.50;;;20.00;99.90;;;;;;472696;249;29364;-70
2022/08/29 09:25:14;;;;;;;3.67;2.80;;;20.20;99.90;;;;;;472680;249;28999;-69
2022/08/29 09:27:15;;;;;;;4.07;3.00;;;20.30;99.90;;;;;;472624;249;28900;-69
2022/08/29 09:29:19;;;;;;;4.50;2.97;;;20.40;99.90;;;;;;472667;249;29005;-70
2022/08/29 09:31:17;;;;;;;12.30;3.50;;;20.40;99.90;;;;;;472537;251;28931;-71
2022/08/29 09:33:19;;;;;;;6.20;3.47;;;20.50;99.90;;;;;;472709;249;28860;-69
2022/08/29 09:35:23;;;;;;;6.70;3.90;;;20.50;99.90;;;;;;472699;249;28919;-69
2022/08/29 09:37:22;;;;;;;4.83;3.13;;;20.60;99.90;;;;;;472488;251;28965;-69
2022/08/29 09:39:22;;;;;;;4.07;2.97;;;20.80;99.90;;;;;;472675;249;28868;-69
2022/08/29 09:41:24;;;;;;;4.80;3.20;;;20.70;99.90;;;;;;472632;249;29455;-70
2022/08/29 09:43:25;;;;;;;4.03;2.70;;;20.60;99.90;;;;;;472098;249;29235;-68
2022/08/29 09:45:26;;;;;;;6.90;2.73;;;20.70;99.90;;;;;;472691;249;29412;-68
2022/08/29 09:47:27;;;;;;;4.37;3.07;;;20.80;99.90;;;;;;472625;249;29357;-69
2022/08/29 09:49:29;;;;;;;5.60;2.90;;;20.70;99.90;;;;;;472663;249;28876;-70
2022/08/29 09:51:30;;;;;;;4.93;3.10;;;20.70;99.90;;;;;;472664;249;28929;-70
2022/08/29 09:53:31;;;;;;;5.13;3.10;;;20.90;99.90;;;;;;472684;249;28878;-69
2022/08/29 09:55:33;;;;;;;8.23;3.70;;;20.90;99.90;;;;;;472660;249;28980;-70
2022/08/29 09:57:34;;;;;;;3.93;3.33;;;21.00;99.90;;;;;;472570;249;29293;-74
2022/08/29 09:59:35;;;;;;;5.03;2.87;;;21.10;99.90;;;;;;472662;249;28886;-70
2022/08/29 10:01:38;;;;;;;8.23;2.90;;;21.20;99.90;;;;;;472682;249;28959;-71
2022/08/29 10:03:38;;;;;;;3.40;2.43;;;21.00;99.90;;;;;;472570;251;28961;-69
2022/08/29 10:05:43;;;;;;;4.27;2.73;;;21.10;99.90;;;;;;472676;249;28975;-69
2022/08/29 10:07:43;;;;;;;5.30;3.43;;;21.30;99.90;;;;;;472599;251;28872;-70
2022/08/29 10:09:44;;;;;;;6.93;2.60;;;21.50;99.90;;;;;;472693;251;28915;-73
2022/08/29 10:11:46;;;;;;;6.17;3.50;;;21.60;99.90;;;;;;472698;249;28883;-69
2022/08/29 10:13:47;;;;;;;5.53;3.00;;;21.30;99.90;;;;;;472662;250;28919;-70
2022/08/29 10:15:48;;;;;;;9.60;4.20;;;21.40;99.90;;;;;;472689;249;28890;-70
2022/08/29 10:20:10;;;;;;;5.70;3.33;;;21.30;99.90;;;;;;472666;251;29429;-70
2022/08/29 10:22:10;;;;;;;5.27;3.30;;;21.40;99.90;;;;;;472625;251;29316;-69
2022/08/29 10:24:11;;;;;;;4.73;2.80;;;21.60;99.90;;;;;;472686;249;28884;-69
2022/08/29 10:26:12;;;;;;;4.53;2.97;;;21.80;99.90;;;;;;472660;249;28998;-73
2022/08/29 10:28:14;;;;;;;5.10;3.07;;;21.90;99.90;;;;;;472709;249;28909;-70
2022/08/29 10:30:15;;;;;;;4.37;3.30;;;21.80;99.90;;;;;;472651;250;28927;-71
2022/08/29 10:32:16;;;;;;;5.10;3.20;;;22.00;99.90;;;;;;472671;249;28861;-69
2022/08/29 10:34:17;;;;;;;5.70;2.73;;;22.20;99.90;;;;;;472700;250;28895;-70
2022/08/29 10:36:19;;;;;;;4.67;2.93;;;22.10;99.90;;;;;;472642;249;28934;-72